Time;durP1;ratioP1;P1;durP2;ratioP2;P2;SDS_P1;SDS_P2;PMS_P1;PMS_P2;Temp;Humidity;BMP_temperature;BMP_pressure;BME280_temperature;BME280_humidity;BME280_pressure;Samples;Min_cycle;Max_cycle;Signal;HPM_P1;HPM_P2
2023/05/25 00:00:07;;;;;;;;;;;10.60;99.90;;;;;;5133204;27;20330;-66
2023/05/25 00:02:34;;;;;;;;;;;10.60;99.90;;;;;;5132644;27;19924;-66
2023/05/25 00:05:01;;;;;;;;;;;10.60;99.90;;;;;;5133159;27;20418;-66
2023/05/25 00:07:26;;;;;;;;;;;10.60;99.90;;;;;;5133898;27;19924;-68
2023/05/25 00:09:52;;;;;;;;;;;10.60;99.90;;;;;;5133535;27;19930;-66
2023/05/25 00:12:18;;;;;;;;;;;10.60;99.90;;;;;;5133500;27;19930;-66
2023/05/25 00:14:43;;;;;;;;;;;10.60;99.90;;;;;;5132512;27;19952;-66
2023/05/25 00:17:10;;;;;;;;;;;10.60;99.90;;;;;;5133734;27;19923;-66
2023/05/25 00:19:42;;;;;;;;;;;10.50;99.90;;;;;;5132446;27;20281;-67
2023/05/25 00:22:09;;;;;;;;;;;10.50;99.90;;;;;;5132833;27;20366;-65
2023/05/25 00:24:35;;;;;;;;;;;10.50;99.90;;;;;;5114856;27;19970;-65
2023/05/25 00:27:01;;;;;;;;;;;10.50;99.90;;;;;;5132632;27;20015;-66
2023/05/25 00:29:27;;;;;;;;;;;10.40;99.90;;;;;;5132399;27;19924;-66
2023/05/25 00:31:53;;;;;;;;;;;10.40;99.90;;;;;;5115014;27;19923;-66
2023/05/25 00:34:19;;;;;;;;;;;10.40;99.90;;;;;;5132529;27;20031;-66
2023/05/25 00:36:47;;;;;;;;;;;10.30;99.90;;;;;;5132045;27;20322;-66
2023/05/25 00:39:14;;;;;;;;;;;10.30;99.90;;;;;;5131824;27;19924;-65
2023/05/25 00:41:41;;;;;;;;;;;10.30;99.90;;;;;;5131795;27;19923;-66
2023/05/25 00:44:08;;;;;;;;;;;10.30;99.90;;;;;;5132453;27;19923;-66
2023/05/25 00:46:33;;;;;;;;;;;10.30;99.90;;;;;;5132125;27;19953;-68
2023/05/25 00:48:59;;;;;;;;;;;10.30;99.90;;;;;;5132114;27;20428;-66
2023/05/25 00:51:25;;;;;;;;;;;10.20;99.90;;;;;;5132360;27;19972;-66
2023/05/25 00:53:51;;;;;;;;;;;10.20;99.90;;;;;;5132009;27;19924;-66
2023/05/25 00:56:29;;;;;;;;;;;10.20;99.90;;;;;;5131610;27;20429;-66
2023/05/25 00:58:57;;;;;;;;;;;10.20;99.90;;;;;;5166160;27;19926;-65
2023/05/25 01:01:25;;;;;;;;;;;10.10;99.90;;;;;;5132226;28;20050;-66
2023/05/25 01:03:53;;;;;;;;;;;10.00;99.90;;;;;;5132674;27;19923;-66
2023/05/25 01:06:21;;;;;;;;;;;10.00;99.90;;;;;;5166766;27;19924;-65
2023/05/25 01:08:51;;;;;;;;;;;10.00;99.90;;;;;;5132683;27;19959;-66
2023/05/25 01:11:25;;;;;;;;;;;10.00;99.90;;;;;;5166561;27;19972;-65
2023/05/25 01:13:52;;;;;;;;;;;10.00;99.90;;;;;;5132309;27;19946;-65
2023/05/25 01:16:19;;;;;;;;;;;9.90;99.90;;;;;;5131923;28;19934;-65
2023/05/25 01:18:46;;;;;;;;;;;9.90;99.90;;;;;;5131641;28;19972;-66
2023/05/25 01:21:25;;;;;;;;;;;9.90;99.90;;;;;;5132044;28;19934;-66
2023/05/25 01:24:01;;;;;;;;;;;9.90;99.90;;;;;;5131718;28;19923;-68
2023/05/25 01:26:28;;;;;;;;;;;9.90;99.90;;;;;;5132011;28;20368;-66
2023/05/25 01:28:54;;;;;;;;;;;9.90;99.90;;;;;;5148821;27;19923;-66
2023/05/25 01:31:21;;;;;;;;;;;9.80;99.90;;;;;;5131455;28;19969;-66
2023/05/25 01:33:48;;;;;;;;;;;9.80;99.90;;;;;;5131072;28;20423;-66
2023/05/25 01:36:14;;;;;;;;;;;9.80;99.90;;;;;;5132462;27;19977;-66
2023/05/25 01:38:40;;;;;;;;;;;9.90;99.90;;;;;;5114045;28;20341;-69
2023/05/25 01:41:05;;;;;;;;;;;9.90;99.90;;;;;;5132717;28;19923;-66
2023/05/25 01:43:31;;;;;;;;;;;10.00;99.90;;;;;;5114155;28;20049;-66
2023/05/25 01:46:16;;;;;;;;;;;10.00;99.90;;;;;;5131120;28;19923;-66
2023/05/25 01:48:48;;;;;;;;;;;10.00;99.90;;;;;;5114177;28;19966;-68
2023/05/25 01:51:35;;;;;;;;;;;10.00;99.90;;;;;;5148891;27;19923;-66
2023/05/25 01:54:07;;;;;;;;;;;10.00;99.90;;;;;;5131037;28;20469;-66
2023/05/25 01:56:34;;;;;;;;;;;10.00;99.90;;;;;;5131678;28;19923;-65
2023/05/25 01:59:00;;;;;;;;;;;10.00;99.90;;;;;;5131301;28;19927;-65
2023/05/25 02:01:26;;;;;;;;;;;9.90;99.90;;;;;;5132564;27;19923;-67
2023/05/25 02:03:52;;;;;;;;;;;9.90;99.90;;;;;;5165899;27;20336;-67
2023/05/25 02:06:18;;;;;;;;;;;9.90;99.90;;;;;;5118055;27;19961;-67
2023/05/25 02:08:44;;;;;;;;;;;9.80;99.90;;;;;;5135112;27;19930;-69
2023/05/25 02:11:11;;;;;;;;;;;9.80;99.90;;;;;;5117622;27;20078;-65
2023/05/25 02:13:37;;;;;;;;;;;9.80;99.90;;;;;;5136168;27;20273;-65
2023/05/25 02:16:02;;;;;;;;;;;9.80;99.90;;;;;;5134374;27;19924;-66
2023/05/25 02:18:28;;;;;;;;;;;9.80;99.90;;;;;;5135896;27;20382;-66
2023/05/25 02:20:54;;;;;;;;;;;9.80;99.90;;;;;;5134215;27;20031;-65
2023/05/25 02:23:19;;;;;;;;;;;9.80;99.90;;;;;;5134744;27;19923;-65
2023/05/25 02:25:45;;;;;;;;;;;9.80;99.90;;;;;;5135358;27;19923;-67
2023/05/25 02:28:10;;;;;;;;;;;9.80;99.90;;;;;;5134725;27;19953;-66
2023/05/25 02:30:36;;;;;;;;;;;9.80;99.90;;;;;;5134648;27;19923;-65
2023/05/25 02:33:02;;;;;;;;;;;9.80;99.90;;;;;;5116941;27;19933;-65
2023/05/25 02:35:27;;;;;;;;;;;9.70;99.90;;;;;;5134511;27;19931;-65
2023/05/25 02:37:53;;;;;;;;;;;9.70;99.90;;;;;;5116955;27;19955;-66
2023/05/25 02:40:18;;;;;;;;;;;9.70;99.90;;;;;;5135774;27;19969;-66
2023/05/25 02:42:44;;;;;;;;;;;9.70;99.90;;;;;;5134229;27;20349;-66
2023/05/25 02:45:10;;;;;;;;;;;9.70;99.90;;;;;;5134340;27;19952;-66
2023/05/25 02:47:35;;;;;;;;;;;9.70;99.90;;;;;;5134118;27;20364;-66
2023/05/25 02:50:01;;;;;;;;;;;9.70;99.90;;;;;;5116937;27;19927;-66
2023/05/25 02:52:29;;;;;;;;;;;9.70;99.90;;;;;;5135625;27;19930;-66
2023/05/25 02:54:55;;;;;;;;;;;9.70;99.90;;;;;;5116983;27;19923;-66
2023/05/25 02:57:22;;;;;;;;;;;9.70;99.90;;;;;;5116871;27;19930;-67
2023/05/25 02:59:48;;;;;;;;;;;9.70;99.90;;;;;;5133647;27;20384;-67
2023/05/25 03:02:13;;;;;;;;;;;9.70;99.90;;;;;;5134867;27;19943;-66
2023/05/25 03:04:40;;;;;;;;;;;9.70;99.90;;;;;;5133612;27;19930;-66
2023/05/25 03:07:06;;;;;;;;;;;9.70;99.90;;;;;;5133418;27;19923;-66
2023/05/25 03:09:31;;;;;;;;;;;9.60;99.90;;;;;;5133695;27;19927;-66
2023/05/25 03:11:57;;;;;;;;;;;9.60;99.90;;;;;;5099359;27;19924;-66
2023/05/25 03:14:23;;;;;;;;;;;9.60;99.90;;;;;;5133900;27;20310;-66
2023/05/25 03:16:48;;;;;;;;;;;9.60;99.90;;;;;;5132776;27;20010;-67
2023/05/25 03:19:14;;;;;;;;;;;9.60;99.90;;;;;;5133339;27;19926;-66
2023/05/25 03:21:39;;;;;;;;;;;9.60;99.90;;;;;;5116116;27;19949;-66
2023/05/25 03:24:05;;;;;;;;;;;9.60;99.90;;;;;;5132577;27;19923;-66
2023/05/25 03:26:31;;;;;;;;;;;9.60;99.90;;;;;;5134665;27;19930;-66
2023/05/25 03:28:57;;;;;;;;;;;9.60;99.90;;;;;;5133198;27;19923;-65
2023/05/25 03:31:23;;;;;;;;;;;9.60;99.90;;;;;;5134697;27;19923;-66
2023/05/25 03:33:48;;;;;;;;;;;9.60;99.90;;;;;;5116307;27;19943;-66
2023/05/25 03:36:16;;;;;;;;;;;9.60;99.90;;;;;;5132949;27;19934;-66
2023/05/25 03:38:42;;;;;;;;;;;9.60;99.90;;;;;;5133833;27;19931;-66
2023/05/25 03:41:08;;;;;;;;;;;9.60;99.90;;;;;;5116099;27;19923;-66
2023/05/25 03:43:33;;;;;;;;;;;9.60;99.90;;;;;;5134574;27;19930;-65
2023/05/25 03:45:59;;;;;;;;;;;9.60;99.90;;;;;;5133903;27;19923;-68
2023/05/25 03:48:25;;;;;;;;;;;9.60;99.90;;;;;;5134199;27;20018;-65
2023/05/25 03:50:50;;;;;;;;;;;9.60;99.90;;;;;;5134159;27;20055;-65
2023/05/25 03:53:16;;;;;;;;;;;9.70;99.90;;;;;;5132491;27;20322;-65
2023/05/25 03:55:42;;;;;;;;;;;9.60;99.90;;;;;;5133221;27;20314;-66
2023/05/25 03:58:10;;;;;;;;;;;9.60;99.90;;;;;;5133556;27;19986;-66
2023/05/25 04:00:36;;;;;;;;;;;9.70;99.90;;;;;;5116096;27;19923;-65
2023/05/25 04:03:02;;;;;;;;;;;9.70;99.90;;;;;;5132566;27;20419;-68
2023/05/25 04:05:28;;;;;;;;;;;9.70;99.90;;;;;;5134036;27;19923;-66
2023/05/25 04:07:54;;;;;;;;;;;9.70;99.90;;;;;;5132927;27;20022;-66
2023/05/25 04:10:20;;;;;;;;;;;9.70;99.90;;;;;;5115521;27;19935;-66
2023/05/25 04:12:45;;;;;;;;;;;9.70;99.90;;;;;;5132673;27;19923;-66
2023/05/25 04:15:13;;;;;;;;;;;9.70;99.90;;;;;;5132079;27;20052;-65
2023/05/25 04:17:39;;;;;;;;;;;9.70;99.90;;;;;;5132719;27;19923;-66
2023/05/25 04:20:05;;;;;;;;;;;9.70;99.90;;;;;;5132102;27;20367;-66
2023/05/25 04:22:32;;;;;;;;;;;9.70;99.90;;;;;;5133750;27;20058;-66
2023/05/25 04:24:57;;;;;;;;;;;9.70;99.90;;;;;;5132663;27;19923;-66
2023/05/25 04:27:25;;;;;;;;;;;9.80;99.90;;;;;;5131519;27;19920;-66
2023/05/25 04:29:52;;;;;;;;;;;9.90;99.90;;;;;;5132724;27;20366;-67
2023/05/25 04:32:20;;;;;;;;;;;9.90;99.90;;;;;;5131788;27;19927;-65
2023/05/25 04:34:47;;;;;;;;;;;9.90;99.90;;;;;;5133296;27;19950;-65
2023/05/25 04:37:12;;;;;;;;;;;10.10;99.90;;;;;;5131689;27;20296;-67
2023/05/25 04:39:38;;;;;;;;;;;10.20;99.90;;;;;;5132058;27;20010;-66
2023/05/25 04:42:04;;;;;;;;;;;10.40;99.90;;;;;;5132051;27;20022;-66
2023/05/25 04:44:31;;;;;;;;;;;10.70;99.90;;;;;;5131984;27;19923;-66
2023/05/25 04:46:58;;;;;;;;;;;11.00;99.90;;;;;;5132225;27;19927;-66
2023/05/25 04:49:25;;;;;;;;;;;11.70;99.90;;;;;;5131303;27;20022;-66
2023/05/25 04:51:51;;;;;;;;;;;12.40;99.90;;;;;;5132002;27;20013;-66
2023/05/25 04:54:16;;;;;;;;;;;13.20;99.90;;;;;;5114220;27;20019;-67
2023/05/25 04:56:42;;;;;;;;;;;13.90;99.90;;;;;;5131885;27;20018;-67
2023/05/25 04:59:08;;;;;;;;;;;14.60;99.90;;;;;;5131624;27;19923;-70
2023/05/25 05:01:39;;;;;;;;;;;15.10;99.90;;;;;;5131860;27;19966;-65
2023/05/25 05:04:07;;;;;;;;;;;15.70;99.90;;;;;;5132619;27;19924;-65
2023/05/25 05:06:33;;;;;;;;;;;16.30;99.90;;;;;;5131625;27;19924;-66
2023/05/25 05:09:00;;;;;;;;;;;16.70;99.90;;;;;;5132854;27;19924;-66
2023/05/25 05:11:26;;;;;;;;;;;17.00;99.90;;;;;;5131147;28;20401;-65
2023/05/25 05:13:52;;;;;;;;;;;17.00;99.90;;;;;;5131678;28;19927;-65
2023/05/25 05:16:18;;;;;;;;;;;17.10;99.90;;;;;;5132502;28;19943;-65
2023/05/25 05:18:43;;;;;;;;;;;17.30;99.90;;;;;;5131492;28;19923;-65
2023/05/25 05:21:09;;;;;;;;;;;17.10;99.90;;;;;;5131582;28;20006;-66
2023/05/25 05:23:35;;;;;;;;;;;16.80;99.90;;;;;;5131470;28;20325;-65
2023/05/25 05:26:00;;;;;;;;;;;16.40;99.90;;;;;;5132799;27;19934;-65
2023/05/25 05:28:27;;;;;;;;;;;16.00;99.90;;;;;;5131176;28;19924;-66
2023/05/25 05:30:52;;;;;;;;;;;15.80;99.90;;;;;;5133065;27;19923;-65
2023/05/25 05:33:18;;;;;;;;;;;15.90;99.90;;;;;;5130970;28;19946;-65
2023/05/25 05:35:44;;;;;;;;;;;16.20;99.90;;;;;;5132700;28;20427;-65
2023/05/25 05:38:10;;;;;;;;;;;16.20;99.90;;;;;;5131070;28;20341;-65
2023/05/25 05:40:35;;;;;;;;;;;15.90;99.90;;;;;;5116818;27;19930;-65
2023/05/25 05:43:01;;;;;;;;;;;15.70;99.90;;;;;;5118531;27;19934;-67
2023/05/25 05:45:26;;;;;;;;;;;15.30;99.90;;;;;;5135337;27;19923;-66
2023/05/25 05:47:52;;;;;;;;;;;;;;;;;;5118309;27;19923;-69
2023/05/25 05:50:18;;;;;;;;;;;;;;;;;;5135266;27;19924;-67
2023/05/25 05:52:44;;;;;;;;;;;14.90;99.90;;;;;;5136203;27;20436;-66
2023/05/25 05:55:10;;;;;;;;;;;14.30;99.90;;;;;;5136210;27;19924;-66
2023/05/25 05:57:35;;;;;;;;;;;14.20;99.90;;;;;;5117850;27;20383;-66
2023/05/25 06:00:03;;;;;;;;;;;14.00;99.90;;;;;;5101218;27;19942;-65
2023/05/25 06:02:29;;;;;;;;;;;13.80;99.90;;;;;;5134814;27;19961;-67
2023/05/25 06:04:55;;;;;;;;;;;13.80;99.90;;;;;;5117487;27;19927;-66
2023/05/25 06:07:21;;;;;;;;;;;13.80;99.90;;;;;;5117662;27;19924;-66
2023/05/25 06:09:46;;;;;;;;;;;13.70;99.90;;;;;;5135417;27;19930;-66
2023/05/25 06:12:12;;;;;;;;;;;13.70;99.90;;;;;;5117383;27;19923;-66
2023/05/25 06:14:37;;;;;;;;;;;13.80;99.90;;;;;;5135740;27;19927;-66
2023/05/25 06:17:03;;;;;;;;;;;13.90;99.90;;;;;;5134858;27;19923;-66
2023/05/25 06:19:28;;;;;;;;;;;13.90;99.90;;;;;;5117596;27;20280;-66
2023/05/25 06:21:54;;;;;;;;;;;14.00;99.90;;;;;;5117671;27;19930;-67
2023/05/25 06:24:20;;;;;;;;;;;14.00;99.90;;;;;;5135646;27;19958;-69
2023/05/25 06:26:45;;;;;;;;;;;14.00;99.90;;;;;;5134766;27;20065;-66
2023/05/25 06:29:11;;;;;;;;;;;14.20;99.90;;;;;;5136003;27;19934;-66
2023/05/25 06:31:37;;;;;;;;;;;14.20;99.90;;;;;;5135314;27;19931;-66
2023/05/25 06:34:02;;;;;;;;;;;14.30;99.90;;;;;;5134439;27;19924;-68
2023/05/25 06:36:28;;;;;;;;;;;14.30;99.90;;;;;;5134231;27;19969;-67
2023/05/25 06:38:54;;;;;;;;;;;14.40;99.90;;;;;;5135158;27;20284;-66
2023/05/25 06:41:19;;;;;;;;;;;14.60;99.90;;;;;;5134231;27;19924;-67
2023/05/25 06:43:45;;;;;;;;;;;14.90;99.90;;;;;;5135197;27;20014;-67
2023/05/25 06:46:16;;;;;;;;;;;15.10;99.90;;;;;;5134769;27;19931;-69
2023/05/25 06:48:42;;;;;;;;;;;15.40;99.90;;;;;;5133848;27;20288;-67
2023/05/25 06:51:07;;;;;;;;;;;15.70;99.90;;;;;;5133821;27;20026;-65
2023/05/25 06:53:33;;;;;;;;;;;15.80;99.90;;;;;;5133863;27;19946;-66
2023/05/25 06:55:59;;;;;;;;;;;15.70;99.90;;;;;;5134040;27;20022;-66
2023/05/25 06:58:24;;;;;;;;;;;15.70;99.90;;;;;;5134120;27;19985;-69
2023/05/25 07:00:50;;;;;;;;;;;15.60;99.90;;;;;;5134027;27;19923;-67
2023/05/25 07:03:15;;;;;;;;;;;15.90;99.90;;;;;;5135029;27;19954;-66
2023/05/25 07:05:41;;;;;;;;;;;17.00;99.90;;;;;;5134731;27;20010;-68
2023/05/25 07:08:07;;;;;;;;;;;17.70;99.90;;;;;;5116999;27;20246;-66
2023/05/25 07:10:32;;;;;;;;;;;17.80;99.90;;;;;;5133913;27;19967;-65
2023/05/25 07:12:58;;;;;;;;;;;17.50;99.90;;;;;;5116894;27;19930;-65
2023/05/25 07:15:24;;;;;;;;;;;17.10;99.90;;;;;;5133982;27;19923;-66
2023/05/25 07:17:49;;;;;;;;;;;16.90;99.90;;;;;;5133419;27;20284;-66
2023/05/25 07:20:15;;;;;;;;;;;16.60;99.90;;;;;;5134026;27;19988;-66
2023/05/25 07:22:42;;;;;;;;;;;16.30;99.90;;;;;;5134612;27;19930;-65
2023/05/25 07:25:08;;;;;;;;;;;16.30;99.90;;;;;;5116875;27;19946;-65
2023/05/25 07:27:34;;;;;;;;;;;16.40;99.90;;;;;;5133171;27;20356;-66
2023/05/25 07:30:00;;;;;;;;;;;16.60;99.90;;;;;;5133785;27;19923;-66
2023/05/25 07:32:25;;;;;;;;;;;17.10;99.90;;;;;;5134761;27;19930;-66
2023/05/25 07:34:51;;;;;;;;;;;17.40;99.90;;;;;;5134332;27;20014;-64
2023/05/25 07:37:17;;;;;;;;;;;17.90;99.90;;;;;;5132920;27;20018;-67
2023/05/25 07:39:42;;;;;;;;;;;18.60;99.90;;;;;;5133997;27;19927;-67
2023/05/25 07:42:09;;;;;;;;;;;19.40;99.90;;;;;;5116325;27;19924;-66
2023/05/25 07:44:35;;;;;;;;;;;20.30;99.90;;;;;;5133096;27;20314;-66
2023/05/25 07:47:01;;;;;;;;;;;20.80;99.90;;;;;;5133353;27;19930;-67
2023/05/25 07:49:26;;;;;;;;;;;21.30;99.90;;;;;;5116218;27;20068;-67
2023/05/25 07:51:52;;;;;;;;;;;21.70;98.60;;;;;;5133986;27;20177;-66
2023/05/25 07:54:18;;;;;;;;;;;22.00;98.40;;;;;;5134245;27;19930;-66
2023/05/25 07:56:44;;;;;;;;;;;;;;;;;;5132853;27;20393;-67
2023/05/25 07:59:10;;;;;;;;;;;;;;;;;;5133166;27;19927;-68
2023/05/25 08:01:37;;;;;;;;;;;;;;;;;;5133583;27;19989;-70
2023/05/25 08:04:03;;;;;;;;;;;;;;;;;;5132924;27;19980;-67
2023/05/25 08:06:31;;;;;;;;;;;;;;;;;;5167329;27;20023;-67
2023/05/25 08:08:57;;;;;;;;;;;;;;;;;;5132912;27;20533;-66
2023/05/25 08:11:23;;;;;;;;;;;;;;;;;;5133967;27;19924;-68
2023/05/25 08:13:50;;;;;;;;;;;;;;;;;;5149626;27;20448;-67
2023/05/25 08:16:15;;;;;;;;;;;;;;;;;;5132793;27;20326;-66
2023/05/25 08:18:45;;;;;;;;;;;;;;;;;;5149797;27;19928;-66
2023/05/25 08:21:11;;;;;;;;;;;;;;;;;;5150039;27;19923;-66
2023/05/25 08:23:41;;;;;;;;;;;;;;;;;;5132548;27;19924;-69
2023/05/25 08:26:07;;;;;;;;;;;;;;;;;;5132471;27;19923;-68
2023/05/25 08:28:33;;;;;;;;;;;;;;;;;;5149589;27;19937;-66
2023/05/25 08:30:59;;;;;;;;;;;;;;;;;;5149368;27;20553;-66
2023/05/25 08:33:25;;;;;;;;;;;;;;;;;;5149685;27;19980;-66
2023/05/25 08:35:51;;;;;;;;;;;;;;;;;;5132701;27;20308;-65
2023/05/25 08:38:17;;;;;;;;;;;;;;;;;;5149080;27;19928;-66
2023/05/25 08:40:43;;;;;;;;;;;;;;;;;;5131974;27;19955;-67
2023/05/25 08:43:09;;;;;;;;;;;;;;;;;;5131990;27;19924;-68
2023/05/25 08:45:35;;;;;;;;;;;;;;;;;;5132275;27;19924;-68
2023/05/25 08:48:01;;;;;;;;;;;;;;;;;;5147405;27;20232;-69
2023/05/25 08:50:27;;;;;;;;;;;;;;;;;;5148869;27;19930;-67
2023/05/25 08:52:53;;;;;;;;;;;;;;;;;;5131358;27;20014;-67
2023/05/25 08:55:19;;;;;;;;;;;;;;;;;;5132159;27;19923;-67
2023/05/25 08:57:45;;;;;;;;;;;;;;;;;;5131337;27;19969;-68
2023/05/25 09:00:11;;;;;;;;;;;;;;;;;;5149240;27;20001;-68
2023/05/25 09:02:37;;;;;;;;;;;;;;;;;;5149165;27;19923;-67
2023/05/25 09:05:03;;;;;;;;;;;;;;;;;;5148777;27;19931;-67
2023/05/25 09:07:29;;;;;;;;;;;;;;;;;;5132993;27;19997;-67
2023/05/25 09:09:55;;;;;;;;;;;;;;;;;;5130942;28;20508;-67
2023/05/25 09:12:21;;;;;;;;;;;;;;;;;;5131327;28;19923;-67
2023/05/25 09:14:47;;;;;;;;;;;;;;;;;;5132975;27;19930;-67
2023/05/25 09:17:14;;;;;;;;;;;;;;;;;;5135807;27;20273;-67
2023/05/25 09:19:39;;;;;;;;;;;;;;;;;;5152960;27;19923;-67
2023/05/25 09:22:05;;;;;;;;;;;;;;;;;;5132473;27;19920;-68
2023/05/25 09:24:31;;;;;;;;;;;;;;;;;;5135874;27;19931;-67
2023/05/25 09:26:57;;;;;;;;;;;;;;;;;;5135240;27;19978;-67
2023/05/25 09:29:23;;;;;;;;;;;;;;;;;;5153333;27;20329;-67
2023/05/25 09:31:49;;;;;;;;;;;;;;;;;;5136441;27;19923;-68
2023/05/25 09:34:15;;;;;;;;;;;;;;;;;;5134729;27;19924;-68
2023/05/25 09:36:41;;;;;;;;;;;;;;;;;;5135608;27;19924;-67
2023/05/25 09:39:07;;;;;;;;;;;;;;;;;;5134464;27;19934;-67
2023/05/25 09:41:33;;;;;;;;;;;;;;;;;;5134851;27;19931;-67
2023/05/25 09:44:00;;;;;;;;;;;;;;;;;;5135238;27;19923;-66
2023/05/25 09:46:27;;;;;;;;;;;;;;;;;;5135649;27;19937;-66
2023/05/25 09:48:53;;;;;;;;;;;;;;;;;;5134593;27;19924;-67
2023/05/25 09:51:18;;;;;;;;;;;;;;;;;;5148924;27;19923;-69
2023/05/25 09:53:44;;;;;;;;;;;;;;;;;;5134052;27;20035;-68
2023/05/25 09:56:11;;;;;;;;;;;;;;;;;;5134643;27;19919;-66
2023/05/25 09:58:37;;;;;;;;;;;;;;;;;;5134658;27;20289;-67
2023/05/25 10:01:03;;;;;;;;;;;;;;;;;;5152101;27;19938;-66
2023/05/25 10:03:29;;;;;;;;;;;;;;;;;;5136301;27;19923;-66
2023/05/25 10:05:55;;;;;;;;;;;;;;;;;;5135753;27;20296;-67
2023/05/25 10:08:22;;;;;;;;;;;;;;;;;;5136374;27;20003;-66
2023/05/25 10:10:51;;;;;;;;;;;;;;;;;;5151397;27;19963;-67
2023/05/25 10:13:17;;;;;;;;;;;;;;;;;;5134782;27;19927;-66
2023/05/25 10:15:44;;;;;;;;;;;22.20;97.30;;;;;;5135863;27;20440;-66
2023/05/25 10:18:11;;;;;;;;;;;18.90;96.50;;;;;;5135753;27;19985;-67
2023/05/25 10:20:37;;;;;;;;;;;18.80;96.60;;;;;;5151757;27;19924;-66
2023/05/25 10:23:10;;;;;;;;;;;18.60;96.80;;;;;;5134006;27;19946;-66
2023/05/25 10:25:47;;;;;;;;;;;18.70;97.00;;;;;;5168773;27;19923;-67
2023/05/25 10:28:19;;;;;;;;;;;18.50;96.70;;;;;;5134325;27;19923;-65
2023/05/25 10:30:45;;;;;;;;;;;18.30;96.10;;;;;;5134135;27;20010;-66
2023/05/25 10:33:11;;;;;;;;;;;18.40;96.80;;;;;;5134697;27;20329;-66
2023/05/25 10:35:38;;;;;;;;;;;18.30;96.40;;;;;;5134493;27;19930;-67
2023/05/25 10:38:04;;;;;;;;;;;18.20;96.70;;;;;;5168452;27;19984;-66
2023/05/25 10:40:31;;;;;;;;;;;18.40;97.20;;;;;;5134517;27;20010;-66
2023/05/25 10:42:57;;;;;;;;;;;18.40;96.50;;;;;;5133844;27;20019;-67
2023/05/25 10:45:23;;;;;;;;;;;18.60;96.00;;;;;;5135534;27;19927;-66
2023/05/25 10:47:49;;;;;;;;;;;18.60;95.50;;;;;;5133865;27;20446;-67
2023/05/25 10:50:20;;;;;;;;;;;18.70;95.80;;;;;;5133496;27;19927;-65
2023/05/25 10:52:55;;;;;;;;;;;18.80;95.60;;;;;;5116969;27;19923;-67
2023/05/25 10:55:21;;;;;;;;;;;18.60;95.50;;;;;;5133022;27;19977;-67
2023/05/25 10:58:05;;;;;;;;;;;18.60;95.40;;;;;;5134027;27;19923;-67
2023/05/25 11:00:31;;;;;;;;;;;18.40;95.60;;;;;;5133968;27;19930;-67
2023/05/25 11:02:56;;;;;;;;;;;18.40;95.30;;;;;;5133883;27;19923;-67
2023/05/25 11:05:29;;;;;;;;;;;18.40;95.90;;;;;;5116569;27;19983;-65
2023/05/25 11:07:56;;;;;;;;;;;18.20;95.70;;;;;;5135097;27;20372;-65
2023/05/25 11:10:42;;;;;;;;;;;18.10;95.30;;;;;;5135022;27;20026;-65
2023/05/25 11:13:31;;;;;;;;;;;18.00;95.60;;;;;;5134209;27;20025;-66
2023/05/25 11:16:16;;;;;;;;;;;18.30;96.20;;;;;;5129248;27;20359;-68
2023/05/25 11:18:48;;;;;;;;;;;18.40;95.60;;;;;;5151459;27;19971;-66
2023/05/25 11:21:17;;;;;;;;;;;18.60;96.00;;;;;;5133775;27;19973;-66
2023/05/25 11:23:56;;;;;;;;;;;18.70;96.40;;;;;;5133909;27;19969;-67
2023/05/25 11:26:23;;;;;;;;;;;18.70;96.90;;;;;;5133597;27;20372;-67
2023/05/25 11:28:52;;;;;;;;;;;18.60;96.90;;;;;;5133679;27;19924;-66
2023/05/25 11:31:31;;;;;;;;;;;18.60;97.00;;;;;;5134666;27;19923;-66
2023/05/25 11:33:58;;;;;;;;;;;18.50;96.80;;;;;;5133554;27;20407;-66
2023/05/25 11:36:24;;;;;;;;;;;18.40;97.00;;;;;;5133391;27;19977;-66
2023/05/25 11:38:50;;;;;;;;;;;18.40;96.40;;;;;;5132716;27;19930;-66
2023/05/25 11:41:22;;;;;;;;;;;18.30;96.80;;;;;;5116293;27;19934;-66
2023/05/25 11:43:49;;;;;;;;;;;18.20;96.00;;;;;;5151166;27;19923;-65
2023/05/25 11:46:17;;;;;;;;;;;18.30;96.40;;;;;;5116150;27;19924;-65
2023/05/25 11:48:53;;;;;;;;;;;18.40;96.60;;;;;;5132911;27;19923;-66
2023/05/25 11:51:28;;;;;;;;;;;18.40;96.00;;;;;;5133852;27;19972;-65
2023/05/25 11:53:54;;;;;;;;;;;18.40;96.30;;;;;;5134440;27;19931;-64
2023/05/25 11:56:21;;;;;;;;;;;18.30;96.10;;;;;;5132909;27;19924;-64
2023/05/25 11:58:48;;;;;;;;;;;18.20;96.40;;;;;;5133400;27;20250;-64
2023/05/25 12:01:15;;;;;;;;;;;18.00;96.80;;;;;;5133912;27;19996;-64
2023/05/25 12:03:41;;;;;;;;;;;18.00;97.60;;;;;;5134037;27;19923;-64
2023/05/25 12:06:07;;;;;;;;;;;18.10;97.00;;;;;;5132779;27;19969;-67
2023/05/25 12:08:36;;;;;;;;;;;18.10;96.50;;;;;;5132805;27;19962;-65
2023/05/25 12:11:01;;;;;;;;;;;18.20;96.70;;;;;;5134071;27;19927;-65
2023/05/25 12:13:27;;;;;;;;;;;18.00;96.30;;;;;;5133630;27;19919;-64
2023/05/25 12:15:58;;;;;;;;;;;17.90;96.50;;;;;;5133630;27;20408;-63
2023/05/25 12:18:27;;;;;;;;;;;17.70;96.70;;;;;;5132132;27;20377;-64
2023/05/25 12:20:53;;;;;;;;;;;17.60;96.50;;;;;;5115824;27;19931;-64
2023/05/25 12:23:19;;;;;;;;;;;17.60;96.60;;;;;;5133194;27;19923;-64
2023/05/25 12:25:45;;;;;;;;;;;17.50;96.80;;;;;;5132505;27;19929;-63
2023/05/25 12:28:11;;;;;;;;;;;17.60;96.70;;;;;;5133234;27;19966;-67
2023/05/25 12:30:37;;;;;;;;;;;17.60;96.90;;;;;;5132517;27;19979;-65
2023/05/25 12:33:02;;;;;;;;;;;17.50;96.50;;;;;;5133529;27;19928;-64
2023/05/25 12:35:29;;;;;;;;;;;17.40;96.50;;;;;;5131556;27;20383;-64
2023/05/25 12:38:10;;;;;;;;;;;17.50;97.20;;;;;;5132578;27;19923;-64
2023/05/25 12:40:35;;;;;;;;;;;17.70;97.20;;;;;;5132760;27;20014;-64
2023/05/25 12:43:01;;;;;;;;;;;17.70;96.80;;;;;;5133414;27;20360;-64
2023/05/25 12:45:27;;;;;;;;;;;17.70;97.10;;;;;;5132801;27;19997;-64
2023/05/25 12:47:52;;;;;;;;;;;17.60;96.90;;;;;;5132310;27;19931;-63
2023/05/25 12:50:18;;;;;;;;;;;17.70;97.20;;;;;;5131863;27;19972;-63
2023/05/25 12:52:45;;;;;;;;;;;17.70;97.00;;;;;;5133254;27;19967;-63
2023/05/25 12:55:27;;;;;;;;;;;17.70;97.00;;;;;;5133400;27;20014;-63
2023/05/25 12:57:57;;;;;;;;;;;17.70;97.20;;;;;;5115179;28;19923;-63
2023/05/25 13:00:36;;;;;;;;;;;17.60;96.70;;;;;;5131964;27;20522;-63
2023/05/25 13:03:02;;;;;;;;;;;17.40;97.30;;;;;;5133300;27;19927;-64
2023/05/25 13:05:29;;;;;;;;;;;17.40;97.30;;;;;;5132768;27;19978;-63
2023/05/25 13:07:56;;;;;;;;;;;17.50;97.30;;;;;;5133119;27;19923;-64
2023/05/25 13:10:21;;;;;;;;;;;17.40;97.30;;;;;;5132755;27;20292;-63
2023/05/25 13:12:48;;;;;;;;;;;17.40;97.50;;;;;;5132614;27;19930;-64
2023/05/25 13:15:14;;;;;;;;;;;17.40;97.30;;;;;;5115041;28;19923;-64
2023/05/25 13:17:40;;;;;;;;;;;17.50;97.10;;;;;;5131751;28;20014;-63
2023/05/25 13:20:06;;;;;;;;;;;17.40;97.10;;;;;;5114892;28;19930;-63
2023/05/25 13:22:31;;;;;;;;;;;17.20;97.00;;;;;;5131736;28;19927;-63
2023/05/25 13:24:57;;;;;;;;;;;17.30;97.20;;;;;;5132014;28;19923;-63
2023/05/25 13:27:22;;;;;;;;;;;17.40;97.40;;;;;;5132888;27;19976;-63
2023/05/25 13:29:48;;;;;;;;;;;17.30;97.20;;;;;;5131899;28;20288;-63
2023/05/25 13:32:13;;;;;;;;;;;17.20;97.30;;;;;;5133342;28;19931;-64
2023/05/25 13:34:39;;;;;;;;;;;17.20;97.40;;;;;;5132583;28;19928;-64
2023/05/25 13:37:05;;;;;;;;;;;17.10;97.80;;;;;;5132105;28;19928;-63
2023/05/25 13:39:30;;;;;;;;;;;17.10;97.50;;;;;;5132070;28;19930;-63
2023/05/25 13:41:56;;;;;;;;;;;17.20;97.80;;;;;;5132969;27;20385;-64
2023/05/25 13:44:21;;;;;;;;;;;17.20;97.10;;;;;;5131496;28;19935;-64
2023/05/25 13:46:47;;;;;;;;;;;17.10;97.50;;;;;;5131649;28;19924;-63
2023/05/25 13:49:15;;;;;;;;;;;17.10;97.80;;;;;;5131669;28;19927;-63
2023/05/25 13:51:40;;;;;;;;;;;17.10;97.50;;;;;;5131179;28;19930;-64
2023/05/25 13:54:06;;;;;;;;;;;17.00;97.40;;;;;;5132650;27;20066;-63
2023/05/25 13:56:32;;;;;;;;;;;16.90;97.60;;;;;;5132497;28;19973;-63
2023/05/25 13:58:57;;;;;;;;;;;16.90;97.60;;;;;;5114716;28;19924;-63
2023/05/25 14:01:24;;;;;;;;;;;17.00;98.20;;;;;;5134878;27;20018;-64
2023/05/25 14:03:50;;;;;;;;;;;17.00;97.60;;;;;;5136382;27;20027;-63
2023/05/25 14:06:15;;;;;;;;;;;17.00;97.70;;;;;;5136558;27;19967;-63
2023/05/25 14:08:41;;;;;;;;;;;17.00;97.80;;;;;;5118201;27;19927;-64
2023/05/25 14:11:06;;;;;;;;;;;16.80;97.40;;;;;;5135650;27;19923;-63
2023/05/25 14:13:34;;;;;;;;;;;16.70;97.40;;;;;;5117834;27;19923;-64
2023/05/25 14:16:00;;;;;;;;;;;16.60;97.70;;;;;;5136337;27;19924;-64
2023/05/25 14:18:26;;;;;;;;;;;16.70;98.10;;;;;;5136069;27;20269;-63
2023/05/25 14:20:51;;;;;;;;;;;16.70;98.20;;;;;;5117880;27;19932;-63
2023/05/25 14:23:18;;;;;;;;;;;16.80;98.50;;;;;;5136012;27;19923;-63
2023/05/25 14:25:43;;;;;;;;;;;16.80;98.00;;;;;;5136007;27;19923;-63
2023/05/25 14:28:09;;;;;;;;;;;16.70;98.00;;;;;;5134621;27;19924;-63
2023/05/25 14:30:34;;;;;;;;;;;16.50;98.70;;;;;;5135703;27;19924;-63
2023/05/25 14:33:00;;;;;;;;;;;16.60;99.10;;;;;;5134424;27;20019;-65
2023/05/25 14:35:25;;;;;;;;;;;16.60;98.70;;;;;;5134717;27;19950;-64
2023/05/25 14:37:51;;;;;;;;;;;16.70;98.60;;;;;;5135074;27;19934;-64